地図

経路データ

SID SEASON NUMBER BASIN SUBBASIN NAME ISO_TIME NATURE LAT LON WMO_WIND WMO_PRES WMO_AGENCY TRACK_TYPE DIST2LAND LANDFALL IFLAG USA_AGENCY USA_ATCF_ID USA_LAT USA_LON USA_RECORD USA_STATUS USA_WIND USA_PRES USA_SSHS USA_R34_NE USA_R34_SE USA_R34_SW USA_R34_NW USA_R50_NE USA_R50_SE USA_R50_SW USA_R50_NW USA_R64_NE USA_R64_SE USA_R64_SW USA_R64_NW USA_POCI USA_ROCI USA_RMW USA_EYE TOKYO_LAT TOKYO_LON TOKYO_GRADE TOKYO_WIND TOKYO_PRES TOKYO_R50_DIR TOKYO_R50_LONG TOKYO_R50_SHORT TOKYO_R30_DIR TOKYO_R30_LONG TOKYO_R30_SHORT TOKYO_LAND CMA_LAT CMA_LON CMA_CAT CMA_WIND CMA_PRES HKO_LAT HKO_LON HKO_CAT HKO_WIND HKO_PRES NEWDELHI_LAT NEWDELHI_LON NEWDELHI_GRADE NEWDELHI_WIND NEWDELHI_PRES NEWDELHI_CI NEWDELHI_DP NEWDELHI_POCI REUNION_LAT REUNION_LON REUNION_TYPE REUNION_WIND REUNION_PRES REUNION_TNUM REUNION_CI REUNION_RMW REUNION_R34_NE REUNION_R34_SE REUNION_R34_SW REUNION_R34_NW REUNION_R50_NE REUNION_R50_SE REUNION_R50_SW REUNION_R50_NW REUNION_R64_NE REUNION_R64_SE REUNION_R64_SW REUNION_R64_NW BOM_LAT BOM_LON BOM_TYPE BOM_WIND BOM_PRES BOM_TNUM BOM_CI BOM_RMW BOM_R34_NE BOM_R34_SE BOM_R34_SW BOM_R34_NW BOM_R50_NE BOM_R50_SE BOM_R50_SW BOM_R50_NW BOM_R64_NE BOM_R64_SE BOM_R64_SW BOM_R64_NW BOM_ROCI BOM_POCI BOM_EYE BOM_POS_METHOD BOM_PRES_METHOD NADI_LAT NADI_LON NADI_CAT NADI_WIND NADI_PRES WELLINGTON_LAT WELLINGTON_LON WELLINGTON_WIND WELLINGTON_PRES DS824_LAT DS824_LON DS824_STAGE DS824_WIND DS824_PRES TD9636_LAT TD9636_LON TD9636_STAGE TD9636_WIND TD9636_PRES TD9635_LAT TD9635_LON TD9635_WIND TD9635_PRES TD9635_ROCI NEUMANN_LAT NEUMANN_LON NEUMANN_CLASS NEUMANN_WIND NEUMANN_PRES MLC_LAT MLC_LON MLC_CLASS MLC_WIND MLC_PRES USA_GUST BOM_GUST BOM_GUST_PER REUNION_GUST REUNION_GUST_PER USA_SEAHGT USA_SEARAD_NE USA_SEARAD_SE USA_SEARAD_SW USA_SEARAD_NW STORM_SPEED STORM_DIR
1900042S11048 1900 4 SI MM NOT_NAMED 1900-02-11 00:00:00 TS -10.9000 47.9000 main 195 195 _________O____ -1 -10.9000 47.9000 TC 15 238
1900042S11048 1900 4 SI MM NOT_NAMED 1900-02-11 03:00:00 TS -11.2953 47.2528 main 211 211 _________P____ -1 -11.2953 47.2528 TC 15 238
1900042S11048 1900 4 SI MM NOT_NAMED 1900-02-11 06:00:00 TS -11.7000 46.6000 main 255 255 _________O____ -1 -11.7000 46.6000 TC 15 237
1900042S11048 1900 4 SI MM NOT_NAMED 1900-02-11 09:00:00 TS -12.1274 45.9423 main 281 274 _________P____ -1 -12.1274 45.9423 TC 16 235
1900042S11048 1900 4 SI MM NOT_NAMED 1900-02-11 12:00:00 TS -12.6000 45.3000 main 307 307 _________O____ -1 -12.6000 45.3000 TC 16 231
1900042S11048 1900 4 SI MM NOT_NAMED 1900-02-11 15:00:00 TS -13.1199 44.6847 main 327 279 _________P____ -1 -13.1199 44.6847 TC 16 227
1900042S11048 1900 4 SI MM NOT_NAMED 1900-02-11 18:00:00 TS -13.7000 44.1000 main 279 239 _________O____ -1 -13.7000 44.1000 TC 17 223
1900042S11048 1900 4 SI MM NOT_NAMED 1900-02-11 21:00:00 TS -14.3426 43.4977 main 243 208 _________P____ -1 -14.3426 43.4977 TC 17 219
1900042S11048 1900 4 SI MM NOT_NAMED 1900-02-12 00:00:00 TS -15.0000 43.0000 main 208 197 _________O____ -1 -15.0000 43.0000 TC 15 212
1900042S11048 1900 4 SI MM NOT_NAMED 1900-02-12 03:00:00 TS -15.5998 42.6821 main 197 193 _________P____ -1 -15.5998 42.6821 TC 13 202
1900042S11048 1900 4 SI MM NOT_NAMED 1900-02-12 06:00:00 TS -16.2000 42.5000 main 203 177 _________O____ -1 -16.2000 42.5000 TC 13 194
1900042S11048 1900 4 SI MM NOT_NAMED 1900-02-12 09:00:00 TS -16.8425 42.3476 main 187 169 _________P____ -1 -16.8425 42.3476 TC 13 188
1900042S11048 1900 4 SI MM NOT_NAMED 1900-02-12 12:00:00 TS -17.5000 42.3000 main 169 169 _________O____ -1 -17.5000 42.3000 TC 13 181
1900042S11048 1900 4 SI MM NOT_NAMED 1900-02-12 15:00:00 TS -18.1574 42.3327 main 179 161 _________P____ -1 -18.1574 42.3327 TC 13 172
1900042S11048 1900 4 SI MM NOT_NAMED 1900-02-12 18:00:00 TS -18.8000 42.5000 main 164 150 _________O____ -1 -18.8000 42.5000 TC 13 161
1900042S11048 1900 4 SI MM NOT_NAMED 1900-02-12 21:00:00 TS -19.4149 42.7827 main 150 109 _________P____ -1 -19.4149 42.7827 TC 14 151
1900042S11048 1900 4 SI MM NOT_NAMED 1900-02-13 00:00:00 TS -20.0000 43.2000 main 109 38 _________O____ -1 -20.0000 43.2000 TC 15 143
1900042S11048 1900 4 SI MM NOT_NAMED 1900-02-13 03:00:00 TS -20.5724 43.7051 main 30 0 _________P____ -1 -20.5724 43.7051 TC 15 137
1900042S11048 1900 4 SI MM NOT_NAMED 1900-02-13 06:00:00 TS -21.1000 44.3000 main 0 0 _________O____ -1 -21.1000 44.3000 TC 15 131
1900042S11048 1900 4 SI MM NOT_NAMED 1900-02-13 09:00:00 TS -21.5875 44.9426 main 0 0 _________P____ -1 -21.5875 44.9426 TC 15 127
1900042S11048 1900 4 SI MM NOT_NAMED 1900-02-13 12:00:00 TS -22.0000 45.6000 main 0 0 _________O____ -1 -22.0000 45.6000 TC 14 123
1900042S11048 1900 4 SI MM NOT_NAMED 1900-02-13 15:00:00 TS -22.3372 46.2079 main 0 0 _________P____ -1 -22.3372 46.2079 TC 13 118
1900042S11048 1900 4 SI MM NOT_NAMED 1900-02-13 18:00:00 TS -22.6000 46.8000 main 0 0 _________O____ -1 -22.6000 46.8000 TC 12 113
1900042S11048 1900 4 SI MM NOT_NAMED 1900-02-13 21:00:00 TS -22.8130 47.3971 main 0 0 _________P____ -1 -22.8130 47.3971 TC 12 110
1900042S11048 1900 4 SI MM NOT_NAMED 1900-02-14 00:00:00 TS -23.0000 48.0000 main 23 _________O____ -1 -23.0000 48.0000 TC 12 109

IBTrACS Databaseについて

本データベースは、米国NOAAが公開する1842年以降の世界の熱帯低気圧のベストトラックデータアーカイブInternational Best Track Archive for Climate Stewardship (IBTrACS)を、ウェブで閲覧しやすい形式に変換したものです。

最終更新日:2021-10-25